Time;durP1;ratioP1;P1;durP2;ratioP2;P2;SDS_P1;SDS_P2;PMS_P1;PMS_P2;Temp;Humidity;BMP_temperature;BMP_pressure;BME280_temperature;BME280_humidity;BME280_pressure;Samples;Min_cycle;Max_cycle;Signal;HPM_P1;HPM_P2
2022/05/03 00:00:07;;;;;;;6.88;6.18;;;15.90;95.20;;;;;;5011482;28;20029;-65
2022/05/03 00:02:32;;;;;;;8.50;5.80;;;15.80;95.40;;;;;;5011845;28;20025;-64
2022/05/03 00:05:09;;;;;;;7.93;5.55;;;15.80;95.50;;;;;;5010004;28;20406;-65
2022/05/03 00:08:03;;;;;;;7.88;5.90;;;15.80;95.50;;;;;;5012040;28;20382;-64
2022/05/03 00:11:01;;;;;;;6.50;5.68;;;15.80;95.60;;;;;;4952666;28;20042;-64
2022/05/03 00:13:36;;;;;;;6.78;6.07;;;15.80;95.80;;;;;;5011965;28;20435;-65
2022/05/03 00:16:02;;;;;;;6.80;6.10;;;15.80;95.90;;;;;;4993560;28;20116;-64
2022/05/03 00:18:28;;;;;;;10.65;7.07;;;15.80;95.90;;;;;;4993140;28;20065;-65
2022/05/03 00:20:55;;;;;;;7.65;5.82;;;15.70;96.00;;;;;;5011071;28;20105;-63
2022/05/03 00:23:22;;;;;;;6.30;5.57;;;15.70;96.10;;;;;;4993875;28;20065;-64
2022/05/03 00:25:52;;;;;;;6.90;5.57;;;15.70;96.20;;;;;;4992930;28;20041;-63
2022/05/03 00:28:19;;;;;;;7.30;6.30;;;15.70;96.20;;;;;;5011584;28;20030;-64
2022/05/03 00:30:46;;;;;;;6.32;5.55;;;15.60;96.50;;;;;;5011140;28;20033;-66
2022/05/03 00:33:14;;;;;;;8.07;6.15;;;15.60;96.60;;;;;;4993689;28;20026;-64
2022/05/03 00:35:40;;;;;;;7.85;6.15;;;15.60;96.70;;;;;;5011140;28;20133;-64
2022/05/03 00:38:06;;;;;;;7.55;6.20;;;15.60;96.70;;;;;;4993177;28;20040;-64
2022/05/03 00:40:33;;;;;;;10.65;5.95;;;15.60;96.70;;;;;;5011346;28;20038;-64
2022/05/03 00:43:10;;;;;;;7.22;5.78;;;15.50;96.90;;;;;;5010822;28;20121;-63
2022/05/03 00:45:52;;;;;;;7.47;6.20;;;15.50;97.10;;;;;;5011342;28;20044;-64
2022/05/03 00:48:26;;;;;;;10.73;6.50;;;15.40;97.20;;;;;;4993766;28;20061;-64
2022/05/03 00:51:08;;;;;;;6.75;6.07;;;15.50;97.10;;;;;;5010446;28;20041;-65
2022/05/03 00:53:57;;;;;;;9.00;6.40;;;15.50;97.20;;;;;;5011012;28;20030;-64
2022/05/03 00:57:06;;;;;;;13.35;6.95;;;15.50;97.30;;;;;;4961267;28;20042;-63
2022/05/03 00:59:51;;;;;;;7.50;6.13;;;15.50;97.30;;;;;;4965001;28;20494;-64
2022/05/03 01:02:37;;;;;;;9.13;6.40;;;15.40;97.30;;;;;;5009853;28;20174;-63
2022/05/03 01:05:10;;;;;;;9.25;6.30;;;15.40;97.40;;;;;;4992862;28;20113;-64
2022/05/03 01:07:52;;;;;;;8.13;5.72;;;15.30;97.50;;;;;;4993502;28;20479;-64
2022/05/03 01:10:20;;;;;;;6.97;6.28;;;15.30;97.60;;;;;;5011292;28;20080;-63
2022/05/03 01:13:04;;;;;;;9.23;6.45;;;15.30;97.70;;;;;;5011001;28;20030;-72
2022/05/03 01:15:32;;;;;;;8.05;6.03;;;15.30;97.80;;;;;;5011104;28;20391;-65
2022/05/03 01:18:35;;;;;;;9.38;6.35;;;15.30;98.20;;;;;;4992669;28;20038;-64
2022/05/03 01:21:14;;;;;;;9.25;5.97;;;15.30;97.90;;;;;;5010149;28;20033;-64
2022/05/03 01:24:20;;;;;;;10.20;6.07;;;15.30;98.10;;;;;;5010973;28;20038;-65
2022/05/03 01:27:07;;;;;;;9.30;6.22;;;15.30;98.10;;;;;;4956561;28;20542;-63
2022/05/03 01:29:36;;;;;;;6.97;6.28;;;15.20;98.20;;;;;;5012427;28;20038;-64
2022/05/03 01:32:11;;;;;;;9.93;6.68;;;15.20;98.20;;;;;;5012411;28;20052;-65
2022/05/03 01:34:37;;;;;;;7.72;6.50;;;15.20;98.50;;;;;;5014316;28;20030;-63
2022/05/03 01:37:36;;;;;;;8.80;6.25;;;15.20;98.50;;;;;;4996235;28;20022;-63
2022/05/03 01:40:06;;;;;;;7.63;5.85;;;15.20;98.40;;;;;;5013828;28;20037;-64
2022/05/03 01:43:07;;;;;;;11.75;6.32;;;15.20;98.50;;;;;;5014128;28;20057;-64
2022/05/03 01:46:03;;;;;;;10.50;6.63;;;15.20;98.60;;;;;;5014179;28;20038;-63
2022/05/03 01:52:01;;;;;;;7.78;6.13;;;15.10;98.70;;;;;;5014026;28;20037;-64
2022/05/03 01:54:27;;;;;;;9.32;6.47;;;15.10;98.80;;;;;;4996635;28;20037;-64
2022/05/03 01:57:16;;;;;;;11.27;6.72;;;15.00;98.80;;;;;;5013383;28;20022;-64
2022/05/03 02:00:09;;;;;;;6.90;6.20;;;15.10;98.90;;;;;;4996428;28;20468;-64
2022/05/03 02:02:53;;;;;;;10.55;7.07;;;15.00;98.90;;;;;;4993190;28;20065;-64
2022/05/03 02:06:00;;;;;;;10.20;6.90;;;14.90;99.20;;;;;;5013921;28;20045;-64
2022/05/03 02:08:35;;;;;;;8.13;6.28;;;14.90;99.20;;;;;;4995102;28;20137;-64
2022/05/03 02:11:38;;;;;;;11.32;7.63;;;14.90;99.30;;;;;;5013301;28;20061;-63
2022/05/03 02:17:37;;;;;;;7.70;6.90;;;14.90;99.40;;;;;;5013041;28;20348;-63
2022/05/03 02:20:15;;;;;;;7.35;6.40;;;14.90;99.40;;;;;;5012960;28;20478;-64
2022/05/03 02:23:12;;;;;;;7.72;6.35;;;14.90;99.60;;;;;;5013467;28;20073;-63
2022/05/03 02:26:04;;;;;;;8.30;6.03;;;14.90;99.90;;;;;;5013411;28;20053;-64
2022/05/03 02:28:42;;;;;;;8.93;6.40;;;14.80;99.90;;;;;;5012984;28;20125;-64
2022/05/03 02:31:13;;;;;;;7.40;6.25;;;14.80;99.90;;;;;;5012539;28;20037;-64
2022/05/03 02:33:43;;;;;;;8.23;7.00;;;14.80;99.80;;;;;;5012968;28;20494;-65
2022/05/03 02:36:15;;;;;;;7.72;6.85;;;14.90;99.80;;;;;;5012578;28;20256;-64
2022/05/03 02:38:51;;;;;;;6.95;6.18;;;14.70;99.90;;;;;;5012980;28;20486;-64
2022/05/03 02:41:19;;;;;;;7.82;6.70;;;14.80;99.90;;;;;;5012040;28;20061;-65
2022/05/03 02:43:46;;;;;;;10.43;7.38;;;14.80;99.90;;;;;;5013219;28;20041;-64
2022/05/03 02:46:20;;;;;;;7.80;7.03;;;14.70;99.90;;;;;;5012452;28;20034;-64
2022/05/03 02:49:02;;;;;;;9.05;6.78;;;14.60;99.90;;;;;;5011348;28;20049;-64
2022/05/03 02:51:36;;;;;;;13.82;6.82;;;14.70;99.90;;;;;;5013092;28;20029;-65
2022/05/03 02:54:24;;;;;;;8.75;7.03;;;14.60;99.90;;;;;;5012227;28;20045;-65
2022/05/03 02:57:05;;;;;;;10.23;7.05;;;14.60;99.90;;;;;;5013176;28;20062;-64
2022/05/03 03:02:59;;;;;;;12.80;7.07;;;14.70;99.90;;;;;;5012613;28;20080;-65
2022/05/03 03:05:28;;;;;;;8.93;6.45;;;14.70;99.90;;;;;;4995332;28;20026;-64
2022/05/03 03:08:00;;;;;;;9.95;7.63;;;14.70;99.90;;;;;;5012009;28;20030;-66
2022/05/03 03:10:41;;;;;;;8.30;6.82;;;14.70;99.90;;;;;;5012988;28;20480;-64
2022/05/03 03:13:15;;;;;;;9.60;6.75;;;14.70;99.90;;;;;;5012302;28;20030;-65
2022/05/03 03:15:42;;;;;;;10.13;7.03;;;14.70;99.90;;;;;;5012749;28;20060;-65
2022/05/03 03:18:16;;;;;;;7.40;6.70;;;14.50;99.90;;;;;;4994221;28;20456;-64
2022/05/03 03:20:45;;;;;;;7.57;6.78;;;14.60;99.90;;;;;;5012526;28;20026;-63
2022/05/03 03:23:15;;;;;;;9.60;6.18;;;14.60;99.90;;;;;;5011434;28;20057;-64
2022/05/03 03:25:44;;;;;;;7.63;6.85;;;14.70;99.90;;;;;;5012208;28;20021;-65
2022/05/03 03:28:13;;;;;;;11.68;6.72;;;14.60;99.90;;;;;;4994137;28;20117;-65
2022/05/03 03:30:41;;;;;;;11.57;6.97;;;14.60;99.90;;;;;;5012260;28;20373;-66
2022/05/03 03:33:08;;;;;;;7.78;6.82;;;14.60;99.90;;;;;;5010306;28;20030;-64
2022/05/03 03:35:35;;;;;;;8.75;7.15;;;14.60;99.90;;;;;;4994577;28;20054;-64
2022/05/03 03:38:01;;;;;;;9.15;7.10;;;14.50;99.90;;;;;;5011245;28;20026;-65
2022/05/03 03:40:27;;;;;;;11.68;7.30;;;14.50;99.90;;;;;;4994555;28;20394;-64
2022/05/03 03:42:54;;;;;;;12.18;8.25;;;14.50;99.90;;;;;;5012175;28;20105;-64
2022/05/03 03:45:19;;;;;;;10.75;7.43;;;14.60;99.90;;;;;;5011478;28;20113;-65
2022/05/03 03:47:46;;;;;;;10.38;7.57;;;14.50;99.90;;;;;;4994232;28;20125;-64
2022/05/03 03:50:13;;;;;;;10.20;7.60;;;14.50;99.90;;;;;;5011340;28;20037;-64
2022/05/03 03:52:41;;;;;;;10.05;7.47;;;14.50;99.90;;;;;;4993962;28;20033;-64
2022/05/03 03:55:09;;;;;;;8.35;7.53;;;14.50;99.90;;;;;;4992976;28;20102;-64
2022/05/03 03:57:38;;;;;;;7.68;6.63;;;14.50;99.90;;;;;;4994229;28;20037;-64
2022/05/03 04:00:06;;;;;;;7.90;7.03;;;14.50;99.90;;;;;;4993488;28;20079;-65
2022/05/03 04:02:32;;;;;;;10.18;6.78;;;14.60;99.90;;;;;;5011563;28;20026;-64
2022/05/03 04:05:00;;;;;;;13.32;7.35;;;14.60;99.90;;;;;;5011079;28;20022;-64
2022/05/03 04:07:25;;;;;;;13.50;8.07;;;14.60;99.90;;;;;;5011875;28;20037;-64
2022/05/03 04:09:51;;;;;;;10.63;7.25;;;14.50;99.90;;;;;;4977743;28;20034;-66
2022/05/03 04:12:20;;;;;;;11.27;7.43;;;14.50;99.90;;;;;;5011237;28;20032;-64
2022/05/03 04:14:46;;;;;;;10.95;7.45;;;14.60;99.90;;;;;;5011366;28;20026;-64
2022/05/03 04:17:12;;;;;;;12.18;7.90;;;14.50;99.90;;;;;;5011114;28;20113;-64
2022/05/03 04:19:38;;;;;;;10.32;6.97;;;14.60;99.90;;;;;;5011422;28;20114;-65
2022/05/03 04:22:19;;;;;;;9.82;8.07;;;14.60;99.90;;;;;;5010637;28;20049;-65
2022/05/03 04:24:44;;;;;;;10.73;7.78;;;14.40;99.90;;;;;;5011248;28;20372;-66
2022/05/03 04:27:11;;;;;;;10.35;7.95;;;14.50;99.90;;;;;;5010710;28;20034;-63
2022/05/03 04:29:37;;;;;;;9.07;6.60;;;14.40;99.90;;;;;;4994026;28;20034;-65
2022/05/03 04:32:03;;;;;;;9.70;7.70;;;14.50;99.90;;;;;;5011026;28;20029;-65
2022/05/03 04:34:29;;;;;;;12.15;7.75;;;14.60;99.90;;;;;;5011116;28;20032;-64
2022/05/03 04:36:54;;;;;;;12.52;8.05;;;14.50;99.90;;;;;;5011379;28;20057;-64
2022/05/03 04:39:20;;;;;;;9.25;7.47;;;14.50;99.90;;;;;;5009449;28;20418;-65
2022/05/03 04:41:45;;;;;;;8.73;6.95;;;14.60;99.90;;;;;;5011318;28;20033;-65
2022/05/03 04:44:11;;;;;;;8.15;6.97;;;14.50;99.90;;;;;;5010305;28;20118;-64
2022/05/03 04:46:37;;;;;;;10.10;7.47;;;14.50;99.90;;;;;;5011286;28;20022;-66
2022/05/03 04:49:02;;;;;;;11.00;7.05;;;14.50;99.90;;;;;;5009125;28;20132;-65
2022/05/03 04:51:29;;;;;;;9.02;7.75;;;14.50;99.90;;;;;;4993650;28;20124;-64
2022/05/03 04:53:55;;;;;;;9.90;7.10;;;14.50;99.90;;;;;;5009738;28;20030;-64
2022/05/03 04:56:23;;;;;;;8.73;6.85;;;14.50;99.90;;;;;;5010021;28;20030;-64
2022/05/03 04:58:56;;;;;;;13.23;7.15;;;14.60;99.90;;;;;;5010902;28;20399;-65
2022/05/03 05:01:22;;;;;;;11.40;6.90;;;14.50;99.90;;;;;;4992552;28;20504;-64
2022/05/03 05:03:48;;;;;;;13.43;7.20;;;14.50;99.90;;;;;;5011871;28;20049;-65
2022/05/03 05:06:14;;;;;;;12.93;7.75;;;14.60;99.90;;;;;;4996276;28;20186;-64
2022/05/03 05:08:42;;;;;;;9.07;8.07;;;14.60;99.90;;;;;;5014607;28;20124;-66
2022/05/03 05:11:09;;;;;;;13.23;7.65;;;14.70;99.90;;;;;;4996150;28;20101;-65
2022/05/03 05:13:36;;;;;;;10.85;7.13;;;14.60;99.90;;;;;;5015189;28;20050;-66
2022/05/03 05:16:04;;;;;;;8.45;7.13;;;14.70;99.90;;;;;;4996196;28;20034;-64
2022/05/03 05:18:30;;;;;;;12.77;7.50;;;14.60;99.90;;;;;;5014486;28;20506;-65
2022/05/03 05:20:56;;;;;;;10.35;8.07;;;14.60;99.90;;;;;;5026167;28;20034;-67
2022/05/03 05:23:21;;;;;;;9.57;7.60;;;14.60;99.90;;;;;;5031830;28;20394;-66
2022/05/03 05:25:48;;;;;;;13.90;6.85;;;14.60;99.90;;;;;;5033580;28;20022;-65
2022/05/03 05:28:15;;;;;;;9.02;7.72;;;14.60;99.90;;;;;;5033159;28;20542;-66
2022/05/03 05:30:42;;;;;;;8.82;6.90;;;14.50;99.90;;;;;;5016352;28;20029;-66
2022/05/03 05:33:08;;;;;;;14.85;5.95;;;14.60;99.90;;;;;;5042992;28;20032;-60
2022/05/03 05:35:33;;;;;;;8.48;6.93;;;14.80;99.90;;;;;;4996138;28;20030;-65
2022/05/03 05:37:59;;;;;;;10.25;6.72;;;14.90;99.90;;;;;;5026309;28;20029;-66
2022/05/03 05:40:25;;;;;;;10.90;4.72;;;14.90;99.90;;;;;;5023378;28;20128;-70
2022/05/03 05:42:50;;;;;;;13.75;6.22;;;15.30;99.90;;;;;;5006662;28;20128;-68
2022/05/03 05:45:17;;;;;;;7.82;5.65;;;16.00;99.90;;;;;;5015239;28;20033;-70
2022/05/03 05:47:43;;;;;;;8.35;5.70;;;16.30;99.90;;;;;;5053072;28;20060;-67
2022/05/03 05:50:11;;;;;;;6.75;5.65;;;16.40;99.90;;;;;;5046653;28;20064;-68
2022/05/03 05:55:23;;;;;;;9.77;6.80;;;16.50;99.90;;;;;;5040434;28;20278;-67
2022/05/03 05:57:49;;;;;;;6.95;5.25;;;16.70;99.90;;;;;;5015360;28;20128;-68
2022/05/03 06:00:16;;;;;;;6.95;5.40;;;16.60;99.90;;;;;;5014766;28;20437;-69
2022/05/03 06:02:41;;;;;;;10.40;7.70;;;16.80;99.90;;;;;;5015444;28;20041;-65
2022/05/03 06:05:07;;;;;;;8.93;6.90;;;16.60;99.70;;;;;;5011899;28;20032;-65
2022/05/03 06:07:34;;;;;;;9.50;6.88;;;16.30;99.10;;;;;;5049804;28;20036;-65
2022/05/03 06:09:59;;;;;;;10.65;6.93;;;16.00;99.50;;;;;;5034797;28;20541;-65
2022/05/03 06:12:25;;;;;;;12.82;7.95;;;15.80;99.50;;;;;;5052047;28;20107;-66
2022/05/03 06:14:52;;;;;;;8.35;6.72;;;15.60;99.80;;;;;;5052608;28;20033;-65
2022/05/03 06:17:17;;;;;;;13.35;6.85;;;15.60;99.90;;;;;;5034141;28;20029;-65
2022/05/03 06:19:44;;;;;;;11.77;6.43;;;15.70;99.70;;;;;;5041944;28;20577;-67
2022/05/03 06:22:09;;;;;;;10.43;6.80;;;15.50;99.90;;;;;;5041801;28;20049;-65
2022/05/03 06:24:35;;;;;;;11.73;6.95;;;15.50;99.90;;;;;;5019447;28;20039;-66
2022/05/03 06:27:01;;;;;;;8.88;6.82;;;15.50;99.90;;;;;;5032170;28;20532;-65
2022/05/03 06:29:27;;;;;;;9.80;6.60;;;15.40;99.90;;;;;;5037582;28;20033;-66
2022/05/03 06:31:52;;;;;;;8.38;6.22;;;15.40;99.90;;;;;;5049506;28;20370;-67
2022/05/03 06:34:18;;;;;;;8.10;6.35;;;15.40;99.90;;;;;;5034869;28;20336;-65
2022/05/03 06:36:45;;;;;;;11.63;7.20;;;15.50;99.90;;;;;;5032169;28;20049;-66
2022/05/03 06:39:12;;;;;;;7.63;6.90;;;15.50;99.90;;;;;;5013699;28;20488;-64
2022/05/03 06:41:37;;;;;;;15.23;6.47;;;15.50;99.90;;;;;;5031719;28;20513;-65
2022/05/03 06:44:03;;;;;;;12.27;7.75;;;15.90;99.90;;;;;;5031308;28;20033;-65
2022/05/03 06:46:29;;;;;;;7.35;6.20;;;16.00;99.90;;;;;;5001871;28;20035;-66
2022/05/03 06:48:55;;;;;;;9.18;6.80;;;16.00;99.90;;;;;;5009448;28;20151;-66
2022/05/03 06:51:20;;;;;;;10.60;6.55;;;16.30;99.80;;;;;;5007478;28;20049;-66
2022/05/03 06:53:46;;;;;;;10.38;6.75;;;16.30;99.70;;;;;;5008926;28;20034;-67
2022/05/03 06:56:12;;;;;;;12.57;6.35;;;16.40;99.40;;;;;;5013877;28;20467;-66
2022/05/03 06:58:39;;;;;;;7.97;6.63;;;16.40;99.20;;;;;;5032751;28;20157;-66
2022/05/03 07:01:11;;;;;;;8.50;6.32;;;16.50;99.10;;;;;;5014181;28;20368;-66
2022/05/03 07:03:38;;;;;;;9.90;6.85;;;16.40;98.90;;;;;;5035359;28;20525;-67
2022/05/03 07:06:04;;;;;;;12.77;7.38;;;16.30;98.90;;;;;;5032016;28;20029;-66
2022/05/03 07:08:33;;;;;;;11.77;7.20;;;16.30;99.00;;;;;;4996956;28;20044;-66
2022/05/03 07:10:59;;;;;;;10.90;6.47;;;16.40;99.40;;;;;;5032514;28;20033;-66
2022/05/03 07:13:26;;;;;;;7.63;6.82;;;16.30;99.40;;;;;;5025501;28;20391;-66
2022/05/03 07:15:52;;;;;;;13.80;7.50;;;16.40;99.50;;;;;;5002624;28;20411;-65
2022/05/03 07:23:49;;;;;;;9.50;6.57;;;16.70;98.60;;;;;;5038362;28;20103;-67
2022/05/03 07:26:15;;;;;;;10.35;6.63;;;16.70;98.80;;;;;;5050300;28;20033;-67
2022/05/03 07:28:41;;;;;;;8.23;6.70;;;16.80;98.60;;;;;;5051026;28;20040;-65
2022/05/03 07:31:08;;;;;;;9.48;6.45;;;16.70;98.70;;;;;;5033108;28;20029;-66
2022/05/03 07:33:34;;;;;;;9.23;7.55;;;16.80;98.30;;;;;;5051026;28;20024;-64
2022/05/03 07:36:00;;;;;;;14.50;8.02;;;16.90;98.10;;;;;;5033239;28;20017;-65
2022/05/03 07:38:26;;;;;;;10.40;6.68;;;17.10;99.30;;;;;;5048678;28;20082;-67
2022/05/03 07:40:52;;;;;;;14.75;7.63;;;17.10;98.40;;;;;;5031340;28;20036;-66
2022/05/03 07:43:17;;;;;;;9.48;6.88;;;17.20;98.20;;;;;;5030211;28;20125;-65
2022/05/03 07:45:43;;;;;;;20.83;7.03;;;17.20;97.70;;;;;;5027949;28;20511;-68
2022/05/03 07:48:09;;;;;;;10.75;7.22;;;17.30;97.60;;;;;;4997481;28;20033;-70
2022/05/03 07:50:35;;;;;;;20.08;9.60;;;17.30;97.10;;;;;;5038878;28;20044;-68
2022/05/03 07:53:03;;;;;;;16.40;8.23;;;17.40;99.90;;;;;;5031313;28;20053;-68
2022/05/03 07:55:29;;;;;;;10.95;5.90;;;17.60;99.90;;;;;;5030375;28;20653;-69
2022/05/03 07:57:54;;;;;;;10.25;7.40;;;17.90;99.90;;;;;;5016181;28;20033;-68
2022/05/03 08:00:20;;;;;;;7.80;7.00;;;18.00;99.80;;;;;;5024900;28;20467;-70
2022/05/03 08:02:46;;;;;;;13.68;6.40;;;17.90;97.20;;;;;;5012711;28;20041;-67
2022/05/03 08:05:11;;;;;;;9.30;7.18;;;18.00;96.80;;;;;;5019178;28;20021;-68
2022/05/03 08:07:37;;;;;;;7.90;6.43;;;17.80;96.80;;;;;;5026949;28;20037;-67
2022/05/03 08:10:04;;;;;;;12.73;6.97;;;18.10;96.50;;;;;;5024541;28;20174;-68
2022/05/03 08:12:30;;;;;;;13.05;6.65;;;18.20;96.10;;;;;;5022625;28;20220;-67
2022/05/03 08:14:56;;;;;;;7.95;6.55;;;18.40;95.80;;;;;;5032307;28;20052;-67
2022/05/03 08:17:27;;;;;;;9.68;6.28;;;18.40;95.30;;;;;;5035509;28;20030;-67
2022/05/03 08:19:53;;;;;;;7.70;6.53;;;18.40;95.20;;;;;;5004501;28;20032;-68
2022/05/03 08:22:19;;;;;;;9.00;6.55;;;18.60;95.30;;;;;;5029789;28;20166;-67
2022/05/03 08:24:47;;;;;;;8.05;6.38;;;18.80;95.40;;;;;;5012787;28;20061;-69
2022/05/03 08:27:13;;;;;;;11.40;6.63;;;18.90;95.50;;;;;;5012270;28;20032;-69
2022/05/03 08:29:38;;;;;;;7.03;6.13;;;19.00;95.70;;;;;;5030910;28;20108;-68
2022/05/03 08:32:05;;;;;;;12.07;6.70;;;18.90;95.70;;;;;;5030135;28;20079;-68
2022/05/03 08:34:31;;;;;;;10.20;6.15;;;18.80;95.30;;;;;;5029684;28;20459;-68
2022/05/03 08:42:28;;;;;;;8.05;7.22;;;18.70;94.60;;;;;;5034027;28;20060;-68
2022/05/03 08:44:56;;;;;;;8.88;6.70;;;19.00;94.60;;;;;;5034355;28;20033;-68
2022/05/03 08:47:25;;;;;;;17.13;7.22;;;19.50;94.60;;;;;;5034153;28;20021;-67
2022/05/03 08:50:06;;;;;;;8.38;6.18;;;20.00;93.70;;;;;;5016881;28;20084;-70
2022/05/03 08:52:48;;;;;;;8.90;6.32;;;20.40;93.20;;;;;;5016471;28;20222;-68
2022/05/03 08:55:15;;;;;;;8.88;6.43;;;20.60;92.60;;;;;;5016012;28;20419;-69
2022/05/03 08:57:44;;;;;;;9.15;6.35;;;21.00;92.80;;;;;;5034345;28;20037;-66
2022/05/03 09:00:11;;;;;;;10.25;6.63;;;21.30;91.80;;;;;;5016051;28;20022;-67
2022/05/03 09:02:52;;;;;;;12.55;7.18;;;21.50;91.60;;;;;;5034127;28;20482;-68
2022/05/03 09:05:18;;;;;;;9.57;6.88;;;21.50;91.20;;;;;;5016068;28;20030;-67
2022/05/03 09:07:49;;;;;;;6.28;5.60;;;21.90;90.60;;;;;;5034313;28;20042;-67
2022/05/03 09:10:26;;;;;;;7.43;6.63;;;22.40;90.40;;;;;;5015814;28;20194;-67
2022/05/03 09:12:54;;;;;;;7.80;6.05;;;22.60;90.10;;;;;;5034648;28;20040;-66
2022/05/03 09:15:33;;;;;;;8.85;5.25;;;22.60;88.80;;;;;;5034390;28;20136;-68
2022/05/03 09:18:00;;;;;;;8.30;6.30;;;23.00;88.10;;;;;;5034687;28;20037;-67
2022/05/03 09:26:19;;;;;;;8.50;5.35;;;22.40;89.10;;;;;;5034427;28;20482;-69
2022/05/03 09:28:57;;;;;;;9.00;6.05;;;23.10;88.00;;;;;;5016638;28;20436;-69
2022/05/03 09:31:34;;;;;;;12.15;5.72;;;23.60;88.00;;;;;;5033359;28;20034;-67
2022/05/03 09:34:18;;;;;;;11.85;6.72;;;24.00;85.40;;;;;;5015869;28;20029;-68
2022/05/03 09:36:45;;;;;;;8.15;5.85;;;24.40;84.60;;;;;;5033961;28;20029;-68
2022/05/03 09:39:46;;;;;;;6.85;6.15;;;24.60;83.60;;;;;;5034051;28;20029;-69
2022/05/03 09:42:16;;;;;;;10.65;5.97;;;24.70;82.50;;;;;;5016117;28;20041;-67
2022/05/03 09:44:51;;;;;;;7.78;5.13;;;24.60;83.60;;;;;;5015589;28;20563;-68
2022/05/03 09:47:18;;;;;;;9.05;5.30;;;25.20;81.90;;;;;;5032498;28;20024;-68
2022/05/03 09:49:43;;;;;;;8.77;4.90;;;25.20;81.60;;;;;;5033035;28;20350;-69
2022/05/03 09:52:29;;;;;;;6.22;4.47;;;25.20;80.30;;;;;;5033490;28;20097;-68
2022/05/03 09:55:00;;;;;;;7.57;5.22;;;25.20;81.40;;;;;;5033387;28;20026;-67
2022/05/03 09:57:28;;;;;;;5.90;5.22;;;25.60;80.70;;;;;;5033120;28;20029;-68
2022/05/03 09:59:55;;;;;;;11.25;5.13;;;25.60;78.90;;;;;;5015634;28;20056;-69
2022/05/03 10:02:25;;;;;;;6.43;5.28;;;25.30;80.30;;;;;;5032436;28;20076;-67
2022/05/03 10:04:53;;;;;;;10.63;5.60;;;25.20;79.10;;;;;;5032828;28;20040;-67
2022/05/03 10:07:20;;;;;;;11.05;5.82;;;25.00;78.90;;;;;;5014981;28;20029;-69
2022/05/03 10:09:46;;;;;;;5.72;4.97;;;24.90;78.40;;;;;;5015368;28;20029;-67
2022/05/03 10:12:14;;;;;;;10.02;5.43;;;24.50;79.10;;;;;;5014831;28;20395;-68
2022/05/03 10:14:44;;;;;;;11.57;5.43;;;24.60;79.30;;;;;;5032612;28;20030;-67
2022/05/03 10:23:04;;;;;;;9.27;5.07;;;24.60;77.80;;;;;;5032597;28;20049;-67
2022/05/03 10:26:01;;;;;;;6.75;4.30;;;24.40;77.30;;;;;;5032291;28;20021;-67
2022/05/03 10:29:04;;;;;;;10.05;5.57;;;25.00;76.90;;;;;;5031781;28;20041;-68
2022/05/03 10:31:31;;;;;;;6.72;5.28;;;25.50;76.50;;;;;;5013815;28;20036;-68
2022/05/03 10:33:59;;;;;;;7.07;4.85;;;25.80;76.70;;;;;;5032478;28;20044;-67
2022/05/03 10:36:31;;;;;;;5.55;4.93;;;25.60;77.80;;;;;;5013906;28;20029;-69
2022/05/03 10:39:18;;;;;;;5.38;4.82;;;25.90;77.90;;;;;;5032443;28;20471;-68
2022/05/03 10:41:58;;;;;;;8.55;5.35;;;26.30;77.50;;;;;;5032607;28;20044;-67
2022/05/03 10:45:04;;;;;;;5.25;4.25;;;26.30;75.10;;;;;;5031909;28;20032;-68
2022/05/03 10:47:41;;;;;;;14.20;5.30;;;26.60;76.60;;;;;;5030822;28;20128;-68
2022/05/03 10:50:12;;;;;;;8.63;5.00;;;27.20;75.00;;;;;;5014574;28;20041;-67
2022/05/03 10:52:58;;;;;;;9.40;5.35;;;26.90;74.40;;;;;;5013743;28;20090;-68
2022/05/03 10:55:26;;;;;;;9.82;5.55;;;26.70;74.00;;;;;;5014477;28;20069;-69
2022/05/03 10:58:18;;;;;;;8.45;4.78;;;26.50;74.60;;;;;;5014012;28;20025;-69
2022/05/03 11:01:11;;;;;;;8.60;5.20;;;26.60;74.70;;;;;;5031592;28;20065;-67
2022/05/03 11:03:54;;;;;;;6.95;4.45;;;26.80;74.90;;;;;;5013513;28;20308;-70
2022/05/03 11:06:26;;;;;;;8.65;5.07;;;27.00;75.10;;;;;;5031819;28;20168;-72
2022/05/03 11:11:39;;;;;;;8.52;5.72;;;27.50;73.30;;;;;;5030901;28;20034;-68
2022/05/03 11:14:25;;;;;;;8.25;4.47;;;27.50;71.40;;;;;;5013251;28;20045;-68
2022/05/03 11:17:03;;;;;;;7.28;4.13;;;27.10;71.80;;;;;;5015190;28;20096;-70
2022/05/03 11:19:30;;;;;;;9.15;4.82;;;27.10;72.20;;;;;;5031436;28;20021;-68
2022/05/03 11:21:58;;;;;;;6.38;3.42;;;26.80;71.70;;;;;;5031886;28;20128;-69
2022/05/03 11:24:29;;;;;;;12.43;5.20;;;27.30;71.60;;;;;;5028560;28;20026;-68
2022/05/03 11:26:59;;;;;;;13.30;5.15;;;27.30;71.40;;;;;;5031972;28;20030;-68
2022/05/03 11:29:30;;;;;;;5.75;4.45;;;27.50;71.80;;;;;;5028152;28;20084;-67
2022/05/03 11:31:59;;;;;;;7.45;4.60;;;27.60;71.60;;;;;;4994463;28;20147;-69
2022/05/03 11:34:26;;;;;;;7.03;3.88;;;27.70;71.20;;;;;;5011091;28;20087;-69
2022/05/03 11:36:52;;;;;;;6.78;3.55;;;27.70;70.30;;;;;;5012270;28;20034;-68
2022/05/03 11:39:18;;;;;;;8.82;3.85;;;27.70;71.00;;;;;;5005438;28;20025;-68
2022/05/03 11:41:45;;;;;;;6.97;3.38;;;28.00;70.10;;;;;;5011360;28;20124;-68
2022/05/03 11:44:12;;;;;;;6.78;4.00;;;27.80;69.60;;;;;;5012226;28;20120;-68
2022/05/03 11:46:39;;;;;;;6.38;3.70;;;27.90;70.00;;;;;;5001121;28;20087;-69
2022/05/03 11:49:06;;;;;;;9.13;3.53;;;28.20;69.90;;;;;;4999216;28;20034;-67
2022/05/03 11:57:26;;;;;;;8.50;4.25;;;28.40;68.90;;;;;;5039890;28;20099;-69
2022/05/03 11:59:56;;;;;;;4.63;3.78;;;28.20;68.10;;;;;;5013174;28;20111;-67
2022/05/03 12:02:34;;;;;;;8.85;3.58;;;28.40;68.90;;;;;;5024824;28;20379;-68
2022/05/03 12:05:18;;;;;;;4.32;3.58;;;28.70;68.50;;;;;;4993945;28;20099;-68
2022/05/03 12:07:57;;;;;;;7.72;3.50;;;28.80;67.80;;;;;;4992569;28;20149;-68
2022/05/03 12:10:37;;;;;;;5.65;3.95;;;28.90;67.70;;;;;;5010857;28;20376;-68
2022/05/03 12:13:12;;;;;;;9.15;3.63;;;28.90;66.90;;;;;;5009119;28;20450;-70
2022/05/03 12:15:57;;;;;;;6.40;3.90;;;28.50;67.60;;;;;;5013362;28;20033;-70
2022/05/03 12:18:37;;;;;;;5.75;3.80;;;28.50;67.70;;;;;;5030394;28;20108;-73
2022/05/03 12:21:15;;;;;;;5.95;3.50;;;28.30;66.90;;;;;;5030834;28;20034;-73
2022/05/03 12:23:45;;;;;;;7.97;3.90;;;28.20;67.20;;;;;;5012189;28;20111;-72
2022/05/03 12:26:23;;;;;;;7.75;3.63;;;28.30;66.90;;;;;;5030620;28;20099;-74
2022/05/03 12:28:54;;;;;;;8.35;3.70;;;28.30;66.30;;;;;;5001624;28;20452;-73
2022/05/03 12:31:23;;;;;;;3.80;2.90;;;28.50;66.40;;;;;;5010769;28;20116;-73
2022/05/03 12:33:56;;;;;;;5.43;3.20;;;28.80;66.30;;;;;;4992191;28;20022;-72
2022/05/03 12:36:39;;;;;;;7.95;3.25;;;29.00;66.70;;;;;;5005566;28;20099;-69
2022/05/03 12:39:08;;;;;;;5.45;3.88;;;29.00;66.10;;;;;;5032276;28;20067;-71
2022/05/03 12:41:35;;;;;;;5.60;3.20;;;28.70;66.60;;;;;;5012208;28;20056;-71
2022/05/03 12:44:13;;;;;;;6.70;3.65;;;28.20;66.40;;;;;;5030463;28;20479;-70
2022/05/03 12:46:40;;;;;;;9.10;3.55;;;28.60;66.40;;;;;;5030018;28;20080;-70
2022/05/03 12:49:12;;;;;;;4.88;3.40;;;28.80;66.70;;;;;;5030709;28;20032;-71
2022/05/03 12:51:43;;;;;;;7.38;3.55;;;28.90;65.90;;;;;;5005378;28;20033;-71
2022/05/03 12:54:08;;;;;;;6.78;4.30;;;29.10;65.20;;;;;;5013665;28;20034;-70
2022/05/03 12:59:21;;;;;;;7.47;3.63;;;29.50;65.50;;;;;;5011203;28;20089;-69
2022/05/03 13:01:48;;;;;;;5.07;3.33;;;29.20;64.90;;;;;;5010282;28;20212;-72
2022/05/03 13:04:15;;;;;;;18.98;4.63;;;29.20;65.50;;;;;;5010706;28;20025;-71
2022/05/03 13:06:42;;;;;;;8.43;3.63;;;29.40;65.40;;;;;;5010475;28;20030;-72
2022/05/03 13:09:08;;;;;;;6.65;3.63;;;29.30;64.90;;;;;;5014211;28;20152;-71
2022/05/03 13:11:38;;;;;;;6.38;3.17;;;29.30;65.10;;;;;;5026900;28;20436;-70
2022/05/03 13:14:07;;;;;;;8.30;3.85;;;29.20;64.90;;;;;;5041730;28;20041;-71
2022/05/03 13:16:33;;;;;;;5.03;2.80;;;29.20;64.70;;;;;;5009992;28;20041;-73
2022/05/03 13:18:58;;;;;;;6.80;3.55;;;29.20;64.60;;;;;;5035170;28;20033;-72
2022/05/03 13:21:24;;;;;;;8.23;3.53;;;29.20;64.80;;;;;;5046453;28;20135;-72
2022/05/03 13:23:50;;;;;;;5.18;3.67;;;29.50;64.60;;;;;;5017767;28;20466;-72
2022/05/03 13:26:15;;;;;;;7.40;3.80;;;29.40;63.90;;;;;;5033299;28;20034;-72
2022/05/03 13:28:41;;;;;;;6.65;3.05;;;29.30;63.60;;;;;;5037818;28;20033;-73
2022/05/03 13:31:08;;;;;;;8.70;3.40;;;28.60;64.20;;;;;;5051505;28;20033;-73
2022/05/03 13:33:34;;;;;;;6.10;3.90;;;28.60;64.70;;;;;;5026611;28;20064;-73
2022/05/03 13:41:32;;;;;;;4.78;3.58;;;28.40;65.10;;;;;;5052612;28;20504;-72
2022/05/03 13:43:58;;;;;;;7.57;3.10;;;28.50;65.00;;;;;;5035507;28;20116;-59
2022/05/03 13:46:24;;;;;;;6.75;3.25;;;28.80;66.30;;;;;;5023604;28;20029;-59
2022/05/03 13:48:49;;;;;;;4.57;3.22;;;28.70;65.40;;;;;;5032998;28;20223;-59
2022/05/03 13:51:16;;;;;;;5.95;3.10;;;28.50;65.30;;;;;;5033999;28;20459;-60
2022/05/03 13:53:43;;;;;;;5.38;3.33;;;28.30;65.40;;;;;;5033164;28;20029;-60
2022/05/03 13:56:09;;;;;;;12.32;3.38;;;27.90;65.40;;;;;;5016120;28;20036;-60